In Rescue
 
Open Full Screen Window  High Contrast Mode
Wind Gusting 00 knots
12
April 19, 2021 9:30 PM EDT
Weather Information
Wind Direction
  300 °
Wind Speed
  12 kt (14 mph)
Wind Gust
  00 kt (0 mph)
Altimeter
29.88 in
Visibility
10 SM
Temperature
04° C
39° F
Dewpoint
00° C
32° F
Humidity
75%
1hr Rain Fall
00.00 in.
24hr Rain Fall
00.00 in.
Sky Condition
Overcast @ 8,000 ft
Scattered @ 2,800 ft
Scattered @ 1,800 ft
VFR

METAR KJYM 200130Z AUTO 30012KT 10SM SCT018 SCT028 OVC080 04/00 A2988 RMK AO2 T00360000

FAA Disclaimer: The data displayed is for advisory purposes only and is not to be used for flight planning or operations.